Time;durP1;ratioP1;P1;durP2;ratioP2;P2;SDS_P1;SDS_P2;PMS_P1;PMS_P2;Temp;Humidity;BMP_temperature;BMP_pressure;BME280_temperature;BME280_humidity;BME280_pressure;Samples;Min_cycle;Max_cycle;Signal;HPM_P1;HPM_P2
2022/07/18 00:00:07;;;;;;;23.17;21.90;;;;;;;;;;5078584;28;20457;-68
2022/07/18 00:02:34;;;;;;;22.40;21.20;;;;;;;;;;5077681;28;20443;-68
2022/07/18 00:05:01;;;;;;;22.63;21.43;;;;;;;;;;5076837;28;20815;-68
2022/07/18 00:07:29;;;;;;;22.80;21.60;;;;;;;;;;5078366;28;20412;-68
2022/07/18 00:09:57;;;;;;;23.20;21.80;;;;;;;;;;5078948;28;20451;-68
2022/07/18 00:12:25;;;;;;;23.00;21.70;;;;;;;;;;5080821;28;20444;-69
2022/07/18 00:14:52;;;;;;;23.13;21.57;;;;;;;;;;5080782;28;20455;-68
2022/07/18 00:17:19;;;;;;;22.87;21.47;;;;;;;;;;5080790;28;20487;-69
2022/07/18 00:19:47;;;;;;;23.47;22.17;;;;;;;;;;5081353;28;20445;-68
2022/07/18 00:22:14;;;;;;;22.60;21.40;;;;;;;;;;5080211;28;20458;-68
2022/07/18 00:24:42;;;;;;;22.50;21.30;;;;;;;;;;5080402;28;20463;-68
2022/07/18 00:27:10;;;;;;;23.77;22.27;;;;;;;;;;5082352;28;20449;-68
2022/07/18 00:29:38;;;;;;;23.00;21.70;;;;;;;;;;5081574;28;20455;-68
2022/07/18 00:32:07;;;;;;;22.97;21.67;;;;;;;;;;5080946;28;20439;-68
2022/07/18 00:34:34;;;;;;;23.27;21.73;;;;;;;;;;5080943;28;20436;-68
2022/07/18 00:37:02;;;;;;;22.87;21.67;;;;;;;;;;5080668;28;20476;-68
2022/07/18 00:39:29;;;;;;;22.23;20.83;;;;;;;;;;5080958;28;20821;-68
2022/07/18 00:41:56;;;;;;;21.77;20.53;;;;;;;;;;5080597;28;20425;-68
2022/07/18 00:44:26;;;;;;;22.33;21.13;;;;;;;;;;5080365;28;20914;-68
2022/07/18 00:46:54;;;;;;;22.37;21.03;;;;;;;;;;5079916;28;20819;-67
2022/07/18 00:49:21;;;;;;;22.47;21.27;;;;;;;;;;5080623;28;20480;-68
2022/07/18 00:51:48;;;;;;;22.30;21.10;;;;;;;;;;5082037;28;20461;-68
2022/07/18 00:54:16;;;;;;;22.53;21.33;;;;;;;;;;5079548;28;20462;-69
2022/07/18 00:56:44;;;;;;;22.70;21.50;;;;;;;;;;5080316;28;20465;-67
2022/07/18 00:59:11;;;;;;;23.20;21.90;;;;;;;;;;5080693;28;20446;-68
2022/07/18 01:01:42;;;;;;;22.13;20.93;;;;;;;;;;5079812;28;20422;-67
2022/07/18 01:04:10;;;;;;;23.20;21.90;;;;;;;;;;5079926;28;20534;-67
2022/07/18 01:06:38;;;;;;;22.93;21.57;;;;;;;;;;5080443;28;20609;-69
2022/07/18 01:09:05;;;;;;;22.27;20.93;;;;;;;;;;5081304;28;20439;-69
2022/07/18 01:11:33;;;;;;;23.00;21.80;;;;;;;;;;5080111;28;20519;-68
2022/07/18 01:14:02;;;;;;;22.90;21.60;;;;;;;;;;5080986;28;20431;-68
2022/07/18 01:16:29;;;;;;;22.93;21.53;;;;;;;;;;5079430;28;20498;-68
2022/07/18 01:18:58;;;;;;;22.73;21.43;;;;;;;;;;5080672;28;20863;-68
2022/07/18 01:21:27;;;;;;;22.40;21.20;;;;;;;;;;5080602;28;20424;-68
2022/07/18 01:23:54;;;;;;;22.00;20.80;;;;;;;;;;5080844;28;20449;-67
2022/07/18 01:26:22;;;;;;;22.60;21.20;;;;;;;;;;5081176;28;20447;-68
2022/07/18 01:28:49;;;;;;;22.77;21.00;;;;;;;;;;5078791;28;20426;-68
2022/07/18 01:31:16;;;;;;;22.83;21.53;;;;;;;;;;5079096;28;20953;-68
2022/07/18 01:33:44;;;;;;;22.90;21.60;;;;;;;;;;5080209;28;20445;-69
2022/07/18 01:36:11;;;;;;;23.77;22.27;;;;;;;;;;5079678;28;20481;-68
2022/07/18 01:38:40;;;;;;;22.30;21.00;;;;;;;;;;5079097;28;20471;-68
2022/07/18 01:41:07;;;;;;;21.70;20.50;;;;;;;;;;5079197;28;20454;-68
2022/07/18 01:43:37;;;;;;;22.70;21.30;;;;;;;;;;5080710;28;20455;-68
2022/07/18 01:46:05;;;;;;;22.47;20.93;;;;;;;;;;5079302;28;20556;-69
2022/07/18 01:48:33;;;;;;;22.23;21.03;;;;;;;;;;5078641;28;20480;-67
2022/07/18 01:51:00;;;;;;;22.70;21.40;;;;;;;;;;5080690;28;20455;-68
2022/07/18 01:53:27;;;;;;;22.23;20.93;;;;;;;;;;5078695;28;20932;-68
2022/07/18 01:55:56;;;;;;;21.47;20.33;;;;;;;;;;5078692;28;21021;-68
2022/07/18 01:58:23;;;;;;;22.47;21.27;;;;;;;;;;5077201;28;20423;-68
2022/07/18 02:00:51;;;;;;;22.53;21.20;;;;;;;;;;5079751;28;20458;-68
2022/07/18 02:03:18;;;;;;;22.20;21.00;;;;;;;;;;5078357;28;20827;-68
2022/07/18 02:05:45;;;;;;;22.40;20.97;;;;;;;;;;5079129;28;20453;-68
2022/07/18 02:08:12;;;;;;;21.77;20.47;;;;;;;;;;5080571;28;20463;-69
2022/07/18 02:10:40;;;;;;;22.23;21.00;;;;;;;;;;5078062;28;20452;-68
2022/07/18 02:13:08;;;;;;;21.63;20.53;;;;;;;;;;5078024;28;20460;-68
2022/07/18 02:15:36;;;;;;;23.10;21.80;;;;;;;;;;5077952;28;20418;-68
2022/07/18 02:18:03;;;;;;;23.27;21.77;;;;;;;;;;5078119;28;20497;-69
2022/07/18 02:20:30;;;;;;;22.70;21.40;;;;;;;;;;5077812;28;20929;-68
2022/07/18 02:22:58;;;;;;;22.50;21.30;;;;;;;;;;5079195;28;20447;-68
2022/07/18 02:25:25;;;;;;;21.43;20.23;;;;;;;;;;5078510;28;20425;-68
2022/07/18 02:27:53;;;;;;;21.90;20.70;;;;;;;;;;5078179;28;20529;-68
2022/07/18 02:30:22;;;;;;;21.70;20.40;;;;;;;;;;5078571;28;20436;-68
2022/07/18 02:32:50;;;;;;;21.53;20.43;;;;;;;;;;5078534;28;20547;-69
2022/07/18 02:35:17;;;;;;;22.73;21.40;;;;;;;;;;5078572;28;20454;-68
2022/07/18 02:37:44;;;;;;;21.50;20.33;;;;;;;;;;5078829;28;20491;-70
2022/07/18 02:40:12;;;;;;;21.73;20.43;;;;;;;;;;5077031;28;20460;-68
2022/07/18 02:42:40;;;;;;;21.00;19.90;;;;;;;;;;5078805;28;20451;-69
2022/07/18 02:45:08;;;;;;;22.03;20.83;;;;;;;;;;5078113;28;20906;-69
2022/07/18 02:47:37;;;;;;;21.97;20.73;;;;;;;;;;5076569;28;20924;-68
2022/07/18 02:50:04;;;;;;;22.13;20.83;;;;;;;;;;5078122;28;20422;-68
2022/07/18 02:52:32;;;;;;;21.57;20.27;;;;;;;;;;5077713;28;20424;-68
2022/07/18 02:55:00;;;;;;;21.93;20.43;;;;;;;;;;5078335;28;20425;-68
2022/07/18 02:57:28;;;;;;;21.60;20.40;;;;;;;;;;5077410;28;20497;-68
2022/07/18 02:59:55;;;;;;;21.87;20.67;;;;;;;;;;5078359;28;20917;-68
2022/07/18 03:02:23;;;;;;;21.43;20.27;;;;;;;;;;5077391;28;20807;-68
2022/07/18 03:04:51;;;;;;;22.37;21.07;;;;;;;;;;5077263;28;20800;-68
2022/07/18 03:07:19;;;;;;;21.80;20.60;;;;;;;;;;5079013;28;20422;-68
2022/07/18 03:09:46;;;;;;;22.17;20.97;;;;;;;;;;5079920;28;20421;-68
2022/07/18 03:12:13;;;;;;;21.90;20.60;;;;;;;;;;5078289;28;20512;-68
2022/07/18 03:14:41;;;;;;;21.50;20.30;;;;;;;;;;5078329;28;20451;-68
2022/07/18 03:17:08;;;;;;;22.30;21.10;;;;;;;;;;5078526;28;20464;-68
2022/07/18 03:19:35;;;;;;;21.27;20.10;;;;;;;;;;5079403;28;20453;-68
2022/07/18 03:22:04;;;;;;;21.93;20.67;;;;;;;;;;5078155;28;20427;-68
2022/07/18 03:24:32;;;;;;;22.37;20.97;;;;;;;;;;5079117;28;20583;-68
2022/07/18 03:26:59;;;;;;;22.57;21.27;;;;;;;;;;5078874;28;20424;-69
2022/07/18 03:29:26;;;;;;;21.77;20.43;;;;;;;;;;5078479;28;20456;-68
2022/07/18 03:31:54;;;;;;;22.80;21.50;;;;;;;;;;5077069;28;20444;-68
2022/07/18 03:34:21;;;;;;;22.17;20.87;;;;;;;;;;5079788;28;20444;-68
2022/07/18 03:36:48;;;;;;;22.80;21.30;;;;;;;;;;5076647;28;20481;-69
2022/07/18 03:39:17;;;;;;;21.70;20.40;;;;;;;;;;5077407;28;20558;-68
2022/07/18 03:41:44;;;;;;;22.43;21.03;;;;;;;;;;5077709;28;21258;-68
2022/07/18 03:44:12;;;;;;;22.57;21.10;;;;;;;;;;5079858;28;20544;-68
2022/07/18 03:46:39;;;;;;;21.37;20.07;;;;;;;;;;5081592;28;20456;-69
2022/07/18 03:49:06;;;;;;;22.07;20.87;;;;;;;;;;5080825;28;20453;-68
2022/07/18 03:51:34;;;;;;;21.30;20.10;;;;;;;;;;5082017;28;20754;-68
2022/07/18 03:54:01;;;;;;;22.20;20.73;;;;;;;;;;5080768;28;20436;-68
2022/07/18 03:56:30;;;;;;;22.53;21.10;;;;;;;;;;5080628;28;20919;-68
2022/07/18 03:58:57;;;;;;;23.00;21.60;;;;;;;;;;5080526;28;20442;-68
2022/07/18 04:01:24;;;;;;;22.00;20.80;;;;;;;;;;5081883;28;20456;-68
2022/07/18 04:03:52;;;;;;;22.00;20.70;;;;;;;;;;5082255;28;20423;-68
2022/07/18 04:06:19;;;;;;;22.60;21.10;;;;;;;;;;5081034;28;20918;-68
2022/07/18 04:08:46;;;;;;;22.80;21.40;;;;;;;;;;5082894;28;20506;-68
2022/07/18 04:11:14;;;;;;;21.00;19.80;;;;;;;;;;5080989;28;20431;-68
2022/07/18 04:13:42;;;;;;;22.10;20.70;;;;;;;;;;5081668;28;20860;-68
2022/07/18 04:16:10;;;;;;;22.90;21.10;;;;;;;;;;5081763;28;21029;-68
2022/07/18 04:18:37;;;;;;;21.67;20.37;;;;;;;;;;5080545;28;21006;-68
2022/07/18 04:21:04;;;;;;;21.70;20.33;;;;;;;;;;5080902;28;20824;-68
2022/07/18 04:23:32;;;;;;;21.67;20.47;;;;;;;;;;5081109;28;20487;-68
2022/07/18 04:25:59;;;;;;;21.83;20.53;;;;;;;;;;5081483;28;20775;-68
2022/07/18 04:28:26;;;;;;;22.20;20.90;;;;;;;;;;5081065;28;20421;-68
2022/07/18 04:30:55;;;;;;;21.70;20.43;;;;;;;;;;5080902;28;20447;-68
2022/07/18 04:33:23;;;;;;;21.70;20.30;;;;;;;;;;5079576;28;20743;-68
2022/07/18 04:35:50;;;;;;;22.00;20.73;;;;;;;;;;5081594;28;20455;-68
2022/07/18 04:38:17;;;;;;;23.00;21.50;;;;;;;;;;5080175;28;20544;-68
2022/07/18 04:40:45;;;;;;;21.50;20.33;;;;;;;;;;5079972;28;21042;-68
2022/07/18 04:43:12;;;;;;;21.67;20.40;;;;;;;;;;5080906;28;20459;-68
2022/07/18 04:45:40;;;;;;;22.57;21.27;;;;;;;;;;5080661;28;20486;-68
2022/07/18 04:48:09;;;;;;;26.67;24.77;;;;;;;;;;5079507;28;20452;-68
2022/07/18 04:50:36;;;;;;;21.87;20.47;;;;;;;;;;5080744;28;20521;-68
2022/07/18 04:53:03;;;;;;;23.20;21.73;;;;;;;;;;5080675;28;20423;-69
2022/07/18 04:55:31;;;;;;;23.23;21.93;;;;;;;;;;5080077;28;20506;-68
2022/07/18 04:57:58;;;;;;;22.83;21.43;;;;;;;;;;5081115;28;20485;-68
2022/07/18 05:00:27;;;;;;;23.10;21.73;;;;;;;;;;5079031;28;20437;-68
2022/07/18 05:02:56;;;;;;;23.47;22.17;;;;;;;;;;5082061;28;20430;-69
2022/07/18 05:05:25;;;;;;;23.27;21.87;;;;;;;;;;5080176;28;20413;-68
2022/07/18 05:07:53;;;;;;;23.53;22.20;;;;;;;;;;5080771;28;20424;-68
2022/07/18 05:10:22;;;;;;;23.10;21.80;;;;;;;;;;5081357;28;20482;-68
2022/07/18 05:12:51;;;;;;;23.27;21.87;;;;;;;;;;5079733;28;20455;-68
2022/07/18 05:15:20;;;;;;;23.50;22.07;;;;;;;;;;5079840;28;20448;-69
2022/07/18 05:17:47;;;;;;;23.33;21.63;;;;;;;;;;5081061;28;20991;-68
2022/07/18 05:20:15;;;;;;;22.33;20.90;;;;;;;;;;5079306;28;20445;-68
2022/07/18 05:22:45;;;;;;;23.30;22.10;;;;;;;;;;5079385;28;20455;-68
2022/07/18 05:25:13;;;;;;;21.80;20.50;;;;;;;;;;5080143;28;21049;-68
2022/07/18 05:27:41;;;;;;;22.43;21.03;;;;;;;;;;5078636;28;20421;-68
2022/07/18 05:30:09;;;;;;;21.37;20.17;;;;;;;;;;5079908;28;20460;-68
2022/07/18 05:32:37;;;;;;;21.77;20.57;;;;;;;;;;5078884;28;20413;-68
2022/07/18 05:35:05;;;;;;;22.60;21.30;;;;;;;;;;5078393;28;20457;-68
2022/07/18 05:37:32;;;;;;;21.97;20.77;;;;;;;;;;5079282;28;20451;-67
2022/07/18 05:40:01;;;;;;;21.90;20.70;;;;;;;;;;5078505;28;20462;-69
2022/07/18 05:42:29;;;;;;;22.40;21.00;;;;;;;;;;5080260;28;20454;-68
2022/07/18 05:44:57;;;;;;;22.20;20.67;;;;;;;;;;5078694;28;20804;-68
2022/07/18 05:47:24;;;;;;;22.47;21.23;;;;;;;;;;5080058;28;20458;-68
2022/07/18 05:49:51;;;;;;;22.80;21.40;;;;;;;;;;5079475;28;20451;-68
2022/07/18 05:52:19;;;;;;;23.27;21.97;;;;;;;;;;5078904;28;20842;-71
2022/07/18 05:54:46;;;;;;;23.77;22.00;;;;;;;;;;5079673;28;20786;-69
2022/07/18 05:57:15;;;;;;;23.43;21.83;;;;;;;;;;5078293;28;21021;-72
2022/07/18 05:59:43;;;;;;;23.10;21.80;;;;;;;;;;5078167;28;20455;-75
2022/07/18 06:02:10;;;;;;;21.83;20.63;;;;;;;;;;5079815;28;20435;-74
2022/07/18 06:04:37;;;;;;;22.50;21.20;;;;;;;;;;5079646;28;20451;-67
2022/07/18 06:07:05;;;;;;;22.37;21.07;;;;;;;;;;5078039;28;20418;-67
2022/07/18 06:09:32;;;;;;;22.93;21.63;;;;;;;;;;5078458;28;20451;-71
2022/07/18 06:12:00;;;;;;;22.53;21.03;;;;;;;;;;5080556;28;20456;-75
2022/07/18 06:14:29;;;;;;;22.27;20.97;;;;;;;;;;5079021;28;20515;-72
2022/07/18 06:16:57;;;;;;;22.57;21.20;;;;;;;;;;5079145;28;20451;-69
2022/07/18 06:19:24;;;;;;;22.37;21.10;;;;;;;;;;5078806;28;20958;-75
2022/07/18 06:21:52;;;;;;;22.23;20.93;;;;;;;;;;5077078;28;20932;-75
2022/07/18 06:24:19;;;;;;;22.13;20.80;;;;;;;;;;5080417;28;20876;-75
2022/07/18 06:26:47;;;;;;;22.37;20.97;;;;;;;;;;5077967;28;20456;-75
2022/07/18 06:29:14;;;;;;;22.57;21.07;;;;;;;;;;5080114;28;20447;-69
2022/07/18 06:31:43;;;;;;;22.77;21.17;;;;;;;;;;5078882;28;20461;-69
2022/07/18 06:34:10;;;;;;;22.20;20.90;;;;;;;;;;5078365;28;20481;-71
2022/07/18 06:36:37;;;;;;;22.10;20.80;;;;;;;;;;5080819;28;20471;-71
2022/07/18 06:39:10;;;;;;;22.63;21.23;;;;;;;;;;5078545;28;20462;-76
2022/07/18 06:41:38;;;;;;;22.07;20.60;;;;;;;;;;5079478;28;20925;-69
2022/07/18 06:44:05;;;;;;;21.47;20.27;;;;;;;;;;5079992;28;20543;-73
2022/07/18 06:46:32;;;;;;;22.07;20.87;;;;;;;;;;5079690;28;20452;-69
2022/07/18 06:49:01;;;;;;;21.53;20.33;;;;;;;;;;5078073;28;20455;-70
2022/07/18 06:51:29;;;;;;;21.77;20.50;;;;;;;;;;5077967;28;20455;-70
2022/07/18 06:53:56;;;;;;;21.60;20.27;;;;;;;;;;5078788;28;20421;-69
2022/07/18 06:56:25;;;;;;;22.70;21.07;;;;;;;;;;5078563;28;20430;-69
2022/07/18 06:58:52;;;;;;;21.23;20.13;;;;;;;;;;5076852;28;20487;-72
2022/07/18 07:01:20;;;;;;;23.83;22.17;;;;;;;;;;5077595;28;20454;-74
2022/07/18 07:03:48;;;;;;;22.93;21.10;;;;;;;;;;5078939;28;20759;-69
2022/07/18 07:06:17;;;;;;;21.97;20.67;;;;;;;;;;5077753;28;20422;-70
2022/07/18 07:08:49;;;;;;;23.20;21.73;;;;;;;;;;5077777;28;20422;-69
2022/07/18 07:11:17;;;;;;;22.53;21.13;;;;;;;;;;5077410;28;20423;-69
2022/07/18 07:13:44;;;;;;;23.70;22.00;;;;;;;;;;5079949;28;20447;-70
2022/07/18 07:16:12;;;;;;;21.77;20.50;;;;;;;;;;5077750;28;20430;-69
2022/07/18 07:18:40;;;;;;;23.37;22.00;;;;;;;;;;5077823;28;20500;-69
2022/07/18 07:21:08;;;;;;;22.50;21.20;;;;;;;;;;5082100;28;20426;-70
2022/07/18 07:23:37;;;;;;;21.50;20.20;;;;;;;;;;5082654;28;20890;-70
2022/07/18 07:26:04;;;;;;;23.07;21.57;;;;;;;;;;5081675;28;20423;-69
2022/07/18 07:28:33;;;;;;;21.33;20.03;;;;;;;;;;5083048;28;20424;-85
2022/07/18 07:31:00;;;;;;;23.00;21.60;;;;;;;;;;5081852;28;20497;-69
2022/07/18 07:33:27;;;;;;;21.67;20.17;;;;;;;;;;5082592;28;20950;-70
2022/07/18 07:35:55;;;;;;;23.57;21.77;;;;;;;;;;5083514;28;20449;-70
2022/07/18 07:38:27;;;;;;;21.50;20.20;;;;;;;;;;5083152;28;20830;-70
2022/07/18 07:40:56;;;;;;;22.23;20.63;;;;;;;;;;5080774;28;20848;-70
2022/07/18 07:43:24;;;;;;;22.63;21.03;;;;;;;;;;5082437;28;20521;-70
2022/07/18 07:45:53;;;;;;;22.57;20.83;;;;;;;;;;5081557;28;20455;-69
2022/07/18 07:48:20;;;;;;;22.40;21.10;;;;;;;;;;5080983;28;20468;-69
2022/07/18 07:50:51;;;;;;;22.90;21.57;;;;;;;;;;5081145;28;20473;-69
2022/07/18 07:53:18;;;;;;;23.17;21.57;;;;;;;;;;5080892;28;20837;-72
2022/07/18 07:55:46;;;;;;;23.50;21.67;;;;;;;;;;5081239;28;20786;-69
2022/07/18 07:58:15;;;;;;;23.57;22.27;;;;;;;;;;5081737;28;20454;-70
2022/07/18 08:00:42;;;;;;;24.17;22.77;;;;;;;;;;5080961;28;20426;-69
2022/07/18 08:03:10;;;;;;;24.13;22.57;;;;;;;;;;5080556;28;20424;-70
2022/07/18 08:05:38;;;;;;;24.17;22.60;;;;;;;;;;5081742;28;20506;-70
2022/07/18 08:08:07;;;;;;;24.40;23.00;;;;;;;;;;5081021;28;20437;-69
2022/07/18 08:10:34;;;;;;;23.43;22.10;;;;;;;;;;5082525;28;20433;-69
2022/07/18 08:13:02;;;;;;;23.70;22.20;;;;;;;;;;5082332;28;20420;-69
2022/07/18 08:15:31;;;;;;;23.90;22.50;;;;;;;;;;5080803;28;20431;-69
2022/07/18 08:17:58;;;;;;;22.73;21.40;;;;;;;;;;5080502;28;20448;-70
2022/07/18 08:20:26;;;;;;;24.00;22.60;;;;;;;;;;5081394;28;20915;-69
2022/07/18 08:22:54;;;;;;;22.17;20.93;;;;;;;;;;5082682;28;20553;-69
2022/07/18 08:25:21;;;;;;;23.90;22.57;;;;;;;;;;5081397;28;20412;-69
2022/07/18 08:27:52;;;;;;;24.00;22.50;;;;;;;;;;5081050;28;20455;-68
2022/07/18 08:30:20;;;;;;;23.77;22.37;;;;;;;;;;5080775;28;20463;-69
2022/07/18 08:32:49;;;;;;;23.20;21.80;;;;;;;;;;5080162;28;20430;-69
2022/07/18 08:35:17;;;;;;;22.83;21.27;;;;;;;;;;5081388;28;20492;-70
2022/07/18 08:37:44;;;;;;;23.27;21.87;;;;;;;;;;5079188;28;20416;-69
2022/07/18 08:40:12;;;;;;;22.40;20.90;;;;;;;;;;5080457;28;20502;-69
2022/07/18 08:42:39;;;;;;;22.70;21.30;;;;;;;;;;5081261;28;20924;-69
2022/07/18 08:45:08;;;;;;;22.27;20.97;;;;;;;;;;5080867;28;20438;-69
2022/07/18 08:47:35;;;;;;;23.27;21.97;;;;;;;;;;5079686;28;20473;-69
2022/07/18 08:50:04;;;;;;;23.77;22.10;;;;;;;;;;5081725;28;20458;-70
2022/07/18 08:52:35;;;;;;;23.40;21.93;;;;;;;;;;5080052;28;20441;-69
2022/07/18 08:55:03;;;;;;;23.20;21.80;;;;;;;;;;5080241;28;20933;-69
2022/07/18 08:57:31;;;;;;;23.97;22.50;;;;;;;;;;5081480;28;20434;-69
2022/07/18 08:59:58;;;;;;;23.20;21.90;;;;;;;;;;5079204;28;20463;-70
2022/07/18 09:02:28;;;;;;;23.40;22.00;;;;;;;;;;5080398;28;20424;-69
2022/07/18 09:04:56;;;;;;;22.67;21.37;;;;;;;;;;5080645;28;20989;-70
2022/07/18 09:07:29;;;;;;;23.17;21.77;;;;;;;;;;5081782;28;20428;-69
2022/07/18 09:09:57;;;;;;;22.03;20.80;;;;;;;;;;5081682;28;20423;-69
2022/07/18 09:12:25;;;;;;;23.93;22.37;;;;;;;;;;5079535;28;20423;-69
2022/07/18 09:14:53;;;;;;;24.00;22.70;;;;;;;;;;5078961;28;20454;-69
2022/07/18 09:17:21;;;;;;;23.03;21.73;;;;;;;;;;5082734;28;20939;-69
2022/07/18 09:19:59;;;;;;;23.90;22.60;;;;;;;;;;5079835;28;20486;-69
2022/07/18 09:22:29;;;;;;;23.87;22.30;;;;;;;;;;5080143;28;20441;-69
2022/07/18 09:24:58;;;;;;;25.30;23.80;;;;;;;;;;5079797;28;20422;-69
2022/07/18 09:27:26;;;;;;;24.80;23.40;;;;;;;;;;5080065;28;20453;-69
2022/07/18 09:30:10;;;;;;;23.83;22.10;;;;;;;;;;5080820;28;20421;-69
2022/07/18 09:32:38;;;;;;;25.10;23.70;;;;;;;;;;5079314;28;20473;-70
2022/07/18 09:35:06;;;;;;;24.53;23.17;;;;;;;;;;5080035;28;20449;-70
2022/07/18 09:37:35;;;;;;;24.13;22.60;;;;;;;;;;5083854;28;20452;-71
2022/07/18 09:40:16;;;;;;;23.67;22.37;;;;;;;;;;5093958;28;20500;-70
2022/07/18 09:42:43;;;;;;;25.03;23.60;;;;;;;;;;5094223;28;20487;-69
2022/07/18 09:45:11;;;;;;;25.43;23.93;;;;;;;;;;5094402;28;20904;-70
2022/07/18 09:47:51;;;;;;;24.77;23.17;;;;;;;;;;5093830;28;20436;-70
2022/07/18 09:50:23;;;;;;;25.13;23.63;;;;;;;;;;5094217;28;20435;-70
2022/07/18 09:53:05;;;;;;;24.37;23.07;;;;;;;;;;5092834;28;20465;-70
2022/07/18 09:55:33;;;;;;;23.83;22.53;;;;;;;;;;5094359;28;20440;-69
2022/07/18 09:58:02;;;;;;;23.83;22.43;;;;;;;;;;5094110;28;20412;-69
2022/07/18 10:00:31;;;;;;;25.10;23.67;;;;;;;;;;5093647;28;20506;-69
2022/07/18 10:03:00;;;;;;;25.20;23.80;;;;;;;;;;5093939;28;20452;-69
2022/07/18 10:05:28;;;;;;;23.93;22.63;;;;;;;;;;5092155;28;20933;-69
2022/07/18 10:07:55;;;;;;;26.23;24.53;;;;;;;;;;5093612;28;20404;-69
2022/07/18 10:10:25;;;;;;;23.70;22.30;;;;;;;;;;5093730;28;20762;-70
2022/07/18 10:12:56;;;;;;;24.57;23.20;;;;;;;;;;5093432;28;20484;-69
2022/07/18 10:15:24;;;;;;;24.13;22.63;;;;;;;;;;5093806;28;20512;-69
2022/07/18 10:17:52;;;;;;;23.50;22.10;;;;;;;;;;5093374;28;20435;-69
2022/07/18 10:20:19;;;;;;;24.53;22.93;;;;;;;;;;5093553;28;20530;-69
2022/07/18 10:22:47;;;;;;;24.77;23.23;;;;;;;;;;5093468;28;20408;-69
2022/07/18 10:25:15;;;;;;;24.57;23.07;;;;;;;;;;5093740;28;20409;-68
2022/07/18 10:27:50;;;;;;;23.67;22.37;;;;;;;;;;5093426;28;20411;-69
2022/07/18 10:30:19;;;;;;;24.53;23.13;;;;;;;;;;5093213;28;20947;-69
2022/07/18 10:32:48;;;;;;;25.57;24.07;;;;;;;;;;5092328;28;20433;-69
2022/07/18 10:35:17;;;;;;;24.87;23.40;;;;;;;;;;5093219;28;20505;-69
2022/07/18 10:37:45;;;;;;;25.03;23.63;;;;;;;;;;5093264;28;20417;-69
2022/07/18 10:40:25;;;;;;;23.57;22.23;;;;;;;;;;5093078;28;20960;-69
2022/07/18 10:43:07;;;;;;;25.00;23.50;;;;;;;;;;5093542;28;20438;-69
2022/07/18 10:45:47;;;;;;;25.57;23.87;;;;;;;;;;5092689;28;20453;-69
2022/07/18 10:48:33;;;;;;;25.13;23.83;;;;;;;;;;5092796;28;20463;-69
2022/07/18 10:51:03;;;;;;;25.10;23.17;;;;;;;;;;5093294;28;20437;-69
2022/07/18 10:53:45;;;;;;;25.10;23.60;;;;;;;;;;5092754;28;20422;-69
2022/07/18 10:56:13;;;;;;;25.23;23.77;;;;;;;;;;5092056;28;20449;-68
2022/07/18 10:58:41;;;;;;;24.87;23.57;;;;;;;;;;5092512;28;20427;-69
2022/07/18 11:01:16;;;;;;;25.07;23.43;;;;;;;;;;5093111;28;20425;-69
2022/07/18 11:03:43;;;;;;;25.17;23.67;;;;;;;;;;5092819;28;20920;-70
2022/07/18 11:06:11;;;;;;;25.03;23.37;;;;;;;;;;5093206;28;20416;-69
2022/07/18 11:08:39;;;;;;;24.30;22.70;;;;;;;;;;5092747;28;20419;-68
2022/07/18 11:11:14;;;;;;;24.47;22.90;;;;;;;;;;5092711;28;20471;-69
2022/07/18 11:13:48;;;;;;;25.67;24.07;;;;;;;;;;5092717;28;20415;-68
2022/07/18 11:16:17;;;;;;;25.40;24.00;;;;;;;;;;5092995;28;20452;-69
2022/07/18 11:19:03;;;;;;;24.73;23.33;;;;;;;;;;5092472;28;20890;-69
2022/07/18 11:21:31;;;;;;;25.50;24.00;;;;;;;;;;5093036;28;20417;-69
2022/07/18 11:24:01;;;;;;;25.93;24.33;;;;;;;;;;5092703;28;20405;-70
2022/07/18 11:26:29;;;;;;;25.10;23.60;;;;;;;;;;5092519;28;20413;-69
2022/07/18 11:28:59;;;;;;;24.47;23.10;;;;;;;;;;5092521;28;20903;-69
2022/07/18 11:31:28;;;;;;;26.40;24.70;;;;;;;;;;5092876;28;20738;-69
2022/07/18 11:33:56;;;;;;;25.50;24.00;;;;;;;;;;5092745;28;20464;-69
2022/07/18 11:36:24;;;;;;;25.00;23.60;;;;;;;;;;5092456;28;20406;-69
2022/07/18 11:38:53;;;;;;;26.40;24.90;;;;;;;;;;5092366;28;20469;-70
2022/07/18 11:41:21;;;;;;;24.90;23.50;;;;;;;;;;5092489;28;20425;-69
2022/07/18 11:43:49;;;;;;;24.57;23.07;;;;;;;;;;5092652;28;20461;-69
2022/07/18 11:46:17;;;;;;;24.10;22.70;;;;;;;;;;5092405;28;20526;-69
2022/07/18 11:48:47;;;;;;;25.50;23.77;;;;;;;;;;5092511;28;20507;-69
2022/07/18 11:51:15;;;;;;;24.00;22.70;;;;;;;;;;5092720;28;20444;-69
2022/07/18 11:53:46;;;;;;;25.00;23.27;;;;;;;;;;5092554;28;20414;-69
2022/07/18 11:56:13;;;;;;;25.90;24.13;;;;;;;;;;5092644;28;20408;-69
2022/07/18 11:58:41;;;;;;;25.10;23.60;;;;;;;;;;5092457;28;20786;-69
2022/07/18 12:01:09;;;;;;;25.47;23.90;;;;;;;;;;5092799;28;20458;-69
2022/07/18 12:03:37;;;;;;;24.90;23.30;;;;;;;;;;5092202;28;20414;-69
2022/07/18 12:06:13;;;;;;;24.93;23.43;;;;;;;;;;5093568;28;20448;-69
2022/07/18 12:08:41;;;;;;;25.10;23.60;;;;;;;;;;5095797;28;20456;-70
2022/07/18 12:11:14;;;;;;;24.83;23.43;;;;;;;;;;5096157;28;20851;-70
2022/07/18 12:13:42;;;;;;;25.67;23.87;;;;;;;;;;5096084;28;20423;-69
2022/07/18 12:16:09;;;;;;;24.40;23.00;;;;;;;;;;5096038;28;20403;-69
2022/07/18 12:18:37;;;;;;;24.97;23.40;;;;;;;;;;5095630;28;20486;-69
2022/07/18 12:21:19;;;;;;;24.77;23.30;;;;;;;;;;5095932;28;20479;-69
2022/07/18 12:23:48;;;;;;;24.73;23.13;;;;;;;;;;5097438;27;20426;-70
2022/07/18 12:26:27;;;;;;;23.60;22.20;;;;;;;;;;5095695;28;20410;-72
2022/07/18 12:29:05;;;;;;;23.90;22.60;;;;;;;;;;5095733;28;20440;-70
2022/07/18 12:31:39;;;;;;;24.30;22.90;;;;;;;;;;5095731;28;20419;-71
2022/07/18 12:34:10;;;;;;;23.53;22.10;;;;;;;;;;5095704;28;20432;-69
2022/07/18 12:36:51;;;;;;;23.63;22.23;;;;;;;;;;5095723;28;20441;-69
2022/07/18 12:39:27;;;;;;;23.73;22.33;;;;;;;;;;5095210;28;20477;-69
2022/07/18 12:41:55;;;;;;;25.33;23.60;;;;;;;;;;5095670;28;20489;-69
2022/07/18 12:44:22;;;;;;;24.63;23.23;;;;;;;;;;5095572;28;20449;-70
2022/07/18 12:46:50;;;;;;;24.40;23.00;;;;;;;;;;5095448;28;20439;-69
2022/07/18 12:49:17;;;;;;;24.83;23.43;;;;;;;;;;5095360;28;20907;-77
2022/07/18 12:51:45;;;;;;;24.27;22.77;;;;;;;;;;5095198;28;20425;-73
2022/07/18 12:54:12;;;;;;;24.83;23.27;;;;;;;;;;5095334;28;20437;-69
2022/07/18 12:56:42;;;;;;;24.63;23.23;;;;;;;;;;5091637;28;20448;-68
2022/07/18 12:59:09;;;;;;;24.77;23.40;;;;;;;;;;5088453;28;20454;-69
2022/07/18 13:01:36;;;;;;;24.40;23.00;;;;;;;;;;5095229;28;20761;-69
2022/07/18 13:04:04;;;;;;;25.13;23.73;;;;;;;;;;5095321;28;20403;-69
2022/07/18 13:06:32;;;;;;;25.03;23.63;;;;;;;;;;5095232;28;20839;-69
2022/07/18 13:08:59;;;;;;;24.33;22.97;;;;;;;;;;5095000;28;20404;-69
2022/07/18 13:11:26;;;;;;;24.80;23.40;;;;;;;;;;5094984;28;20473;-70
2022/07/18 13:13:56;;;;;;;24.47;23.07;;;;;;;;;;5094667;28;20919;-70
2022/07/18 13:16:23;;;;;;;26.10;24.50;;;;;;;;;;5094590;28;20891;-69
2022/07/18 13:18:51;;;;;;;24.70;23.30;;;;;;;;;;5094421;28;20437;-70
2022/07/18 13:21:18;;;;;;;25.10;23.70;;;;;;;;;;5095123;28;20473;-70
2022/07/18 13:23:45;;;;;;;24.23;22.70;;;;;;;;;;5094548;28;20408;-69
2022/07/18 13:26:13;;;;;;;25.80;24.27;;;;;;;;;;5094691;28;20400;-69
2022/07/18 13:28:40;;;;;;;24.80;23.40;;;;;;;;;;5094698;28;20445;-70
2022/07/18 13:31:09;;;;;;;24.33;22.93;;;;;;;;;;5094832;28;20434;-70
2022/07/18 13:33:37;;;;;;;24.80;23.40;;;;;;;;;;5094568;28;20765;-70
2022/07/18 13:36:04;;;;;;;24.90;23.50;;;;;;;;;;5094664;28;20425;-70
2022/07/18 13:38:31;;;;;;;25.00;23.60;;;;;;;;;;5094395;28;20799;-69
2022/07/18 13:40:59;;;;;;;24.20;22.80;;;;;;;;;;5093901;28;20501;-70
2022/07/18 13:43:26;;;;;;;24.77;23.27;;;;;;;;;;5094303;28;20446;-69
2022/07/18 13:45:53;;;;;;;23.60;22.30;;;;;;;;;;5094368;28;20423;-69
2022/07/18 13:48:22;;;;;;;24.50;23.10;;;;;;;;;;5093983;28;20462;-69
2022/07/18 13:50:49;;;;;;;24.37;22.97;;;;;;;;;;5094249;28;20411;-70
2022/07/18 13:53:16;;;;;;;23.97;22.60;;;;;;;;;;5093876;28;20436;-69
2022/07/18 13:55:44;;;;;;;23.90;22.50;;;;;;;;;;5093794;28;20429;-69
2022/07/18 13:58:11;;;;;;;24.27;22.97;;;;;;;;;;5093903;28;20437;-69
2022/07/18 14:00:38;;;;;;;24.40;23.00;;;;;;;;;;5093644;28;20470;-69
2022/07/18 14:03:07;;;;;;;24.50;23.00;;;;;;;;;;5094234;28;20814;-69
2022/07/18 14:05:36;;;;;;;24.93;23.23;;;;;;;;;;5093947;28;20433;-70
2022/07/18 14:08:04;;;;;;;24.33;22.93;;;;;;;;;;5093670;28;20440;-69
2022/07/18 14:10:31;;;;;;;25.00;23.40;;;;;;;;;;5094166;28;20429;-69
2022/07/18 14:12:59;;;;;;;23.87;22.57;;;;;;;;;;5093514;28;20497;-70
2022/07/18 14:15:26;;;;;;;24.77;23.20;;;;;;;;;;5093524;28;20424;-69
2022/07/18 14:17:54;;;;;;;24.23;22.63;;;;;;;;;;5093556;28;20410;-69
2022/07/18 14:20:22;;;;;;;23.77;22.37;;;;;;;;;;5093690;28;20840;-69
2022/07/18 14:22:51;;;;;;;24.60;23.20;;;;;;;;;;5093402;28;20476;-70